< < Back
Terminal Aerodrome Forecast


Current Version              Previous Versions:   1  2  3  4  5  6  7  8  9  

Terminal Aerodrome Forecast

735
FTUS42 KMLB 222057 AAA
TAFMCO
TAF AMD
KMCO 222057Z 2221/2318 04008KT P6SM VCTS SCT050CB SCT120
     FM230000 02012KT P6SM SCT040 SCT250
     FM230300 04005KT P6SM FEW060 SCT250
     FM231400 05010KT P6SM SCT040=

Latest METAR

517
SAUS70 KWBC 230200 RRB
MTRMCO
METAR KMCO 230153Z 08004KT 10SM FEW050 SCT150 BKN300 26/22 A3018 RMK AO2
SLP219 FRQN LTGIC DSNT SW-W CB DSNT SW-W T02560217


USA.gov is the U.S. government's official web portal to all federal, state and local government web resources and services.